createdAt,value
2017-07-30T16:47:10.561Z,42.74
2017-07-30T16:47:51.237Z,42.84
2017-07-30T16:48:31.828Z,43.62
2017-07-30T16:49:12.463Z,44.01
2017-07-30T16:49:53.075Z,43.62
2017-07-30T16:50:33.658Z,43.81
2017-07-30T16:51:14.226Z,43.62
2017-07-30T16:51:54.819Z,43.33
2017-07-30T16:52:35.389Z,43.43
2017-07-30T16:53:15.971Z,43.33
2017-07-30T16:53:56.553Z,43.79
2017-07-30T16:54:37.115Z,44.3
2017-07-30T16:55:17.734Z,44.38
2017-07-30T16:55:58.324Z,44.67
2017-07-30T16:56:38.935Z,44.57
2017-07-30T16:57:19.537Z,44.57
2017-07-30T16:58:00.151Z,44.57
2017-07-30T16:58:40.813Z,44.28
2017-07-30T16:59:21.398Z,43.79
2017-07-30T17:00:02.019Z,44.18
2017-07-30T17:00:42.576Z,43.79
2017-07-30T17:01:23.152Z,43.79
2017-07-30T17:02:03.744Z,43.89
2017-07-30T17:02:44.311Z,43.7
2017-07-30T17:03:24.931Z,43.79
2017-07-30T17:04:05.520Z,43.6
2017-07-30T17:04:46.108Z,43.3
2017-07-30T17:05:26.751Z,43.99
2017-07-30T17:06:07.383Z,43.89
2017-07-30T17:06:48.013Z,43.79
2017-07-30T17:07:28.597Z,43.79
2017-07-30T17:08:09.168Z,43.6
2017-07-30T17:08:49.760Z,43.7
2017-07-30T17:09:30.343Z,43.99
2017-07-30T17:10:10.942Z,43.79
2017-07-30T17:10:51.589Z,43.6
2017-07-30T17:11:32.178Z,43.99
2017-07-30T17:12:12.817Z,43.79
2017-07-30T17:12:53.437Z,43.3
2017-07-30T17:13:34.034Z,44.09
2017-07-30T17:14:14.617Z,44.09
2017-07-30T17:14:55.223Z,44.09
2017-07-30T17:15:35.811Z,44.09
2017-07-30T17:16:16.377Z,43.99
2017-07-30T17:16:56.957Z,44.48
2017-07-30T17:17:37.526Z,44.09
2017-07-30T17:18:18.118Z,44.09
2017-07-30T17:18:58.714Z,44.18
2017-07-30T17:19:39.344Z,43.79
2017-07-30T17:20:19.926Z,43.99
2017-07-30T17:21:00.561Z,44.28
2017-07-30T17:21:41.204Z,44.28
2017-07-30T17:22:21.814Z,44.65
2017-07-30T17:23:02.423Z,44.84
2017-07-30T17:23:43.022Z,44.38
2017-07-30T17:24:23.613Z,44.38
2017-07-30T17:25:04.201Z,44.55
2017-07-30T17:25:44.767Z,44.38
2017-07-30T17:26:25.359Z,44.45
2017-07-30T17:27:05.954Z,44.35
2017-07-30T17:27:46.539Z,44.55
2017-07-30T17:28:27.120Z,44.16
2017-07-30T17:29:07.704Z,44.35
2017-07-30T17:29:48.314Z,44.35
2017-07-30T17:30:28.888Z,43.96
2017-07-30T17:31:09.516Z,44.26
2017-07-30T17:31:50.084Z,44.45
2017-07-30T17:32:30.678Z,44.45
2017-07-30T17:33:11.293Z,44.45
2017-07-30T17:33:51.881Z,44.74
2017-07-30T17:34:32.620Z,44.45
2017-07-30T17:35:13.226Z,44.84
2017-07-30T17:35:53.793Z,44.45
2017-07-30T17:36:34.400Z,44.45
2017-07-30T17:37:15.180Z,44.26
2017-07-30T17:37:55.757Z,44.35
2017-07-30T17:38:36.359Z,44.55
2017-07-30T17:39:17.230Z,44.65
2017-07-30T17:39:57.799Z,44.74
2017-07-30T17:40:38.388Z,44.26
2017-07-30T17:41:18.969Z,44.84
2017-07-30T17:41:59.595Z,44.94
2017-07-30T17:42:40.202Z,44.84
2017-07-30T17:43:20.805Z,44.55
2017-07-30T17:44:01.375Z,44.65
2017-07-30T17:44:41.988Z,44.94
2017-07-30T17:45:23.653Z,45.14
2017-07-30T17:46:04.620Z,45.4
2017-07-30T17:46:47.052Z,45.21
2017-07-30T17:47:27.664Z,44.94
2017-07-30T17:48:09.698Z,45.11
2017-07-30T17:48:51.701Z,45.81
2017-07-30T17:49:38.479Z,45.69
2017-07-30T17:50:21.843Z,46.18
2017-07-30T17:51:05.088Z,46.18
2017-07-30T17:51:47.374Z,46.28
2017-07-30T17:52:28.327Z,46.37
2017-07-30T17:53:08.917Z,45.89
2017-07-30T17:53:49.502Z,46.18
2017-07-30T17:54:30.066Z,46.28
2017-07-30T17:55:10.656Z,46.28
2017-07-30T17:55:51.236Z,46.37
2017-07-30T17:56:31.807Z,46.28
2017-07-30T17:57:12.444Z,46.28
2017-07-30T17:57:53.042Z,46.57
2017-07-30T17:58:33.625Z,46.55
2017-07-30T17:59:14.228Z,45.97
2017-07-30T17:59:54.818Z,46.18
2017-07-30T18:00:35.377Z,46.25
2017-07-30T18:01:15.940Z,46.37
2017-07-30T18:01:56.532Z,46.18
2017-07-30T18:02:37.144Z,46.25
2017-07-30T18:03:17.716Z,46.55
2017-07-30T18:03:58.300Z,47.13
2017-07-30T18:04:38.888Z,46.74
2017-07-30T18:05:19.486Z,46.55
2017-07-30T18:06:00.080Z,46.45
2017-07-30T18:06:40.667Z,46.84
2017-07-30T18:07:21.318Z,47.13
2017-07-30T18:08:01.959Z,46.94
2017-07-30T18:08:42.553Z,47.23
2017-07-30T18:09:23.129Z,47.52
2017-07-30T18:10:03.698Z,47.52
2017-07-30T18:10:44.296Z,47.52
2017-07-30T18:11:24.882Z,47.91
2017-07-30T18:12:05.479Z,47.81
2017-07-30T18:12:46.078Z,47.61
2017-07-30T18:13:26.711Z,47.61
2017-07-30T18:14:07.295Z,47.81
2017-07-30T18:14:47.918Z,47.81
2017-07-30T18:15:28.508Z,47.81
2017-07-30T18:16:09.090Z,48
2017-07-30T18:16:49.689Z,47.81
2017-07-30T18:17:30.243Z,48.49
2017-07-30T18:18:10.827Z,48.2
2017-07-30T18:18:51.437Z,48.2
2017-07-30T18:19:32.021Z,48.2
2017-07-30T18:20:12.728Z,48.2
2017-07-30T18:20:53.294Z,48.39
2017-07-30T18:21:33.885Z,48.1
2017-07-30T18:22:14.478Z,47.81
2017-07-30T18:22:55.089Z,48.3
2017-07-30T18:23:35.697Z,48.3
2017-07-30T18:24:16.271Z,47.98
2017-07-30T18:24:56.896Z,48.27
2017-07-30T18:25:37.480Z,47.59
2017-07-30T18:26:18.068Z,48.37
2017-07-30T18:26:58.718Z,48.27
2017-07-30T18:27:39.302Z,48.08
2017-07-30T18:28:19.920Z,48.18
2017-07-30T18:29:00.517Z,48.27
2017-07-30T18:29:41.101Z,48.18
2017-07-30T18:30:21.685Z,48.18
2017-07-30T18:31:02.753Z,48.08
2017-07-30T18:31:43.387Z,48.75
2017-07-30T18:32:23.979Z,47.88
2017-07-30T18:33:05.372Z,48.18
2017-07-30T18:33:45.999Z,48.18
2017-07-30T18:34:26.591Z,47.88
2017-07-30T18:35:07.206Z,48.18
2017-07-30T18:35:47.802Z,48.27
2017-07-30T18:36:28.427Z,47.98
2017-07-30T18:37:09.066Z,48.57
2017-07-30T18:37:49.685Z,48.57
2017-07-30T18:38:30.307Z,48.57
2017-07-30T18:39:10.885Z,48.66
2017-07-30T18:39:51.499Z,48.37
2017-07-30T18:40:32.069Z,48.27
2017-07-30T18:41:12.668Z,48.18
2017-07-30T18:41:53.250Z,48.27
2017-07-30T18:42:33.832Z,47.98
2017-07-30T18:43:14.455Z,48.27
2017-07-30T18:43:55.049Z,48.18
2017-07-30T18:44:35.626Z,48.57
2017-07-30T18:45:16.234Z,48.66
2017-07-30T18:45:56.807Z,48.57
2017-07-30T18:46:37.478Z,48.57
2017-07-30T18:47:18.075Z,48.66
2017-07-30T18:47:58.660Z,48.75
2017-07-30T18:48:39.238Z,48.57
2017-07-30T18:49:19.832Z,47.98
2017-07-30T18:50:00.406Z,47.98
2017-07-30T18:50:40.995Z,47.69
2017-07-30T18:51:21.559Z,47.49
2017-07-30T18:52:02.144Z,47.59
2017-07-30T18:52:42.750Z,47.66
2017-07-30T18:53:23.361Z,48.25
2017-07-30T18:54:03.942Z,47.59
2017-07-30T18:54:44.535Z,47.96
2017-07-30T18:55:25.130Z,47.49
2017-07-30T18:56:05.713Z,47.57
2017-07-30T18:56:46.310Z,47.4
2017-07-30T18:57:26.949Z,47.69
2017-07-30T18:58:07.522Z,47.59
2017-07-30T18:58:48.103Z,48.25
2017-07-30T18:59:28.691Z,47.66
2017-07-30T19:00:09.314Z,47.98
2017-07-30T19:00:49.914Z,48.18
2017-07-30T19:01:30.525Z,48.27
2017-07-30T19:02:11.118Z,47.96
2017-07-30T19:02:51.697Z,48.15
2017-07-30T19:03:32.349Z,47.96
2017-07-30T19:04:12.938Z,48.05
2017-07-30T19:04:53.525Z,48.05
2017-07-30T19:05:34.121Z,48.35
2017-07-30T19:06:14.731Z,47.96
2017-07-30T19:06:55.317Z,48.15
2017-07-30T19:07:35.906Z,48.15
2017-07-30T19:08:16.506Z,47.76
2017-07-30T19:08:57.168Z,48.15
2017-07-30T19:09:37.770Z,47.96
2017-07-30T19:10:18.351Z,48.05
2017-07-30T19:10:58.946Z,48.05
2017-07-30T19:11:39.548Z,48.05
2017-07-30T19:12:20.151Z,48.54
2017-07-30T19:13:00.732Z,48.54
2017-07-30T19:13:41.322Z,48.64
2017-07-30T19:14:21.932Z,48.83
2017-07-30T19:15:02.493Z,48.93
2017-07-30T19:15:43.074Z,48.73
2017-07-30T19:16:23.647Z,49.02
2017-07-30T19:17:04.220Z,48.83
2017-07-30T19:17:44.827Z,48.73
2017-07-30T19:18:25.391Z,49.02
2017-07-30T19:19:05.979Z,48.83
2017-07-30T19:19:46.594Z,48.83
2017-07-30T19:20:27.185Z,48.44
2017-07-30T19:21:07.747Z,48.93
2017-07-30T19:21:48.328Z,48.73
2017-07-30T19:22:28.934Z,49.32
2017-07-30T19:23:09.541Z,49.51
2017-07-30T19:23:50.164Z,49.51
2017-07-30T19:24:30.756Z,49.12
2017-07-30T19:25:11.391Z,49.51
2017-07-30T19:25:52.018Z,49.39
2017-07-30T19:26:32.608Z,49.61
2017-07-30T19:27:13.212Z,49.39
2017-07-30T19:27:53.792Z,49.49
2017-07-30T19:28:34.399Z,49.39
2017-07-30T19:29:14.984Z,49.58
2017-07-30T19:29:55.567Z,49.49
2017-07-30T19:30:36.168Z,49.49
2017-07-30T19:31:16.780Z,49.49
2017-07-30T19:31:57.383Z,49.58
2017-07-30T19:32:37.972Z,49.39
2017-07-30T19:33:18.571Z,49.19
2017-07-30T19:33:59.179Z,49.19
2017-07-30T19:34:39.794Z,49.39
2017-07-30T19:35:20.408Z,49.19
2017-07-30T19:36:01.014Z,49.49
2017-07-30T19:36:41.681Z,49.19
2017-07-30T19:37:22.271Z,49.19
2017-07-30T19:38:02.849Z,49.87
2017-07-30T19:38:43.474Z,49.58
2017-07-30T19:39:24.073Z,49.58
2017-07-30T19:40:04.681Z,50.16
2017-07-30T19:40:45.329Z,49.97
2017-07-30T19:41:25.895Z,49.87
2017-07-30T19:42:06.494Z,49.77
2017-07-30T19:42:47.082Z,49.68
2017-07-30T19:43:27.662Z,49.49
2017-07-30T19:44:08.249Z,49.39
2017-07-30T19:44:48.891Z,49.29
2017-07-30T19:45:29.581Z,49.49
2017-07-30T19:46:10.102Z,49.29
2017-07-30T19:46:50.728Z,49.19
2017-07-30T19:47:31.318Z,49.49
2017-07-30T19:48:11.924Z,49.1
2017-07-30T19:48:52.545Z,49.1
2017-07-30T19:49:33.130Z,49.29
2017-07-30T19:50:13.692Z,49.29
2017-07-30T19:50:54.269Z,49.29
2017-07-30T19:51:34.850Z,49.58
2017-07-30T19:52:15.426Z,49.49
2017-07-30T19:52:56.295Z,49.58
2017-07-30T19:53:37.031Z,49.77
2017-07-30T19:54:17.629Z,49.97
2017-07-30T19:54:58.282Z,49.77
2017-07-30T19:55:38.876Z,49.39
2017-07-30T19:56:19.508Z,49.1
2017-07-30T19:57:00.146Z,49.68
2017-07-30T19:57:40.738Z,49.39
2017-07-30T19:58:21.643Z,49.19
2017-07-30T19:59:02.297Z,49.19
2017-07-30T19:59:43.017Z,49.46
2017-07-30T20:00:23.727Z,49.56
2017-07-30T20:01:04.363Z,49.49
2017-07-30T20:01:45.037Z,49.49
2017-07-30T20:02:25.801Z,49.39
2017-07-30T20:03:06.633Z,49.77
2017-07-30T20:03:47.346Z,49.56
2017-07-30T20:04:28.065Z,49.95
2017-07-30T20:05:08.721Z,50.04
2017-07-30T20:05:49.449Z,50.04
2017-07-30T20:06:30.293Z,50.04
2017-07-30T20:07:10.903Z,49.85
2017-07-30T20:07:51.627Z,50.04
2017-07-30T20:08:32.479Z,49.95
2017-07-30T20:09:13.187Z,49.95
2017-07-30T20:09:53.890Z,50.04
2017-07-30T20:10:34.469Z,50.53
2017-07-30T20:11:15.095Z,49.85
2017-07-30T20:11:55.829Z,50.53
2017-07-30T20:12:36.426Z,50.34
2017-07-30T20:13:17.131Z,50.34
2017-07-30T20:13:57.718Z,50.72
2017-07-30T20:14:38.278Z,50.82
2017-07-30T20:15:18.893Z,50.53
2017-07-30T20:16:00.472Z,50.62
2017-07-30T20:16:41.923Z,50.92
2017-07-30T20:17:22.660Z,50.92
2017-07-30T20:18:03.396Z,50.82
2017-07-30T20:18:43.987Z,50.72
2017-07-30T20:19:24.585Z,50.89
2017-07-30T20:20:05.306Z,50.92
2017-07-30T20:20:46.057Z,50.99
2017-07-30T20:21:26.778Z,51.01
2017-07-30T20:22:07.360Z,50.99
2017-07-30T20:22:47.985Z,50.89
2017-07-30T20:23:28.562Z,51.18
2017-07-30T20:24:09.146Z,50.99
2017-07-30T20:24:49.746Z,51.47
2017-07-30T20:25:30.425Z,51.59
2017-07-30T20:26:11.153Z,51.47
2017-07-30T20:26:51.904Z,51.57
2017-07-30T20:27:32.442Z,52.15
2017-07-30T20:28:13.172Z,51.86
2017-07-30T20:28:53.686Z,51.86
2017-07-30T20:29:34.270Z,51.76
2017-07-30T20:30:14.860Z,51.86
2017-07-30T20:30:55.745Z,52.06
2017-07-30T20:31:39.968Z,52.64
2017-07-30T20:32:27.719Z,52.54
2017-07-30T20:33:08.763Z,53.02
2017-07-30T20:33:49.769Z,52.64
2017-07-30T20:34:30.565Z,52.54
2017-07-30T20:36:21.765Z,53.02
2017-07-30T20:37:09.169Z,53.41
2017-07-30T20:39:17.895Z,53.61
2017-07-30T20:40:01.820Z,53.61
2017-07-30T20:40:43.313Z,53.51
2017-07-30T20:41:30.608Z,53.7
2017-07-30T20:42:14.521Z,53.51
2017-07-30T20:42:56.235Z,53.58
2017-07-30T20:43:39.997Z,53.89
2017-07-30T20:44:23.022Z,54.09
2017-07-30T20:45:54.640Z,54.45
2017-07-30T20:46:37.862Z,54.64
2017-07-30T20:47:18.582Z,54.86
2017-07-30T20:48:02.484Z,55.13
2017-07-30T20:48:43.504Z,54.74
2017-07-30T20:49:24.987Z,54.94
2017-07-30T20:50:05.692Z,54.55
2017-07-30T20:50:53.424Z,54.55
2017-07-30T20:51:34.023Z,54.74
2017-07-30T20:52:15.816Z,53.87
2017-07-30T20:53:01.984Z,53.58
2017-07-30T20:53:47.064Z,53.58
2017-07-30T20:54:28.557Z,53.67
2017-07-30T20:55:11.627Z,53.67
2017-07-30T20:55:52.409Z,52.9
2017-07-30T20:56:33.722Z,52.71
2017-07-30T20:57:15.812Z,52.71
2017-07-30T20:57:56.721Z,52.42
2017-07-30T20:59:53.105Z,52.51
2017-07-30T21:00:38.798Z,52.51
2017-07-30T21:01:20.928Z,53.67
2017-07-30T21:02:05.532Z,53.97
2017-07-30T21:02:46.204Z,53.97
2017-07-30T21:03:27.776Z,53.19
2017-07-30T21:04:08.512Z,53.49
2017-07-30T21:04:57.694Z,53.09
2017-07-30T21:05:42.709Z,53.09
2017-07-30T21:06:27.824Z,53.49
2017-07-30T21:07:08.208Z,53.77
2017-07-30T21:07:53.114Z,54.26
2017-07-30T21:08:33.202Z,55.22
2017-07-30T21:09:16.002Z,55.13
2017-07-30T21:09:57.240Z,55.22
2017-07-30T21:10:40.119Z,55.13
2017-07-30T21:11:20.972Z,55.22
2017-07-30T21:12:09.672Z,55.22
2017-07-30T21:12:52.400Z,55.22
2017-07-30T21:13:37.171Z,55.58
2017-07-30T21:14:18.144Z,55.4
2017-07-30T21:14:59.217Z,55.3
2017-07-30T21:15:41.099Z,54.94
2017-07-30T21:16:21.958Z,55
2017-07-30T21:17:03.863Z,55.52
2017-07-30T21:17:45.532Z,55.04
2017-07-30T21:18:28.827Z,55.4
2017-07-30T21:19:09.513Z,55.42
2017-07-30T21:19:50.741Z,55.68
2017-07-30T21:20:31.332Z,55.49
2017-07-30T21:21:11.932Z,54.91
2017-07-30T21:21:52.545Z,55.2
2017-07-30T21:22:33.146Z,55.2
2017-07-30T21:23:13.749Z,55.52
2017-07-30T21:23:54.335Z,55
2017-07-30T21:24:34.919Z,54.91
2017-07-30T21:25:15.495Z,54.71
2017-07-30T21:25:56.094Z,54.81
2017-07-30T21:26:36.674Z,55.1
2017-07-30T21:27:17.306Z,55.1
2017-07-30T21:27:57.878Z,54.91
2017-07-30T21:28:38.468Z,55.2
2017-07-30T21:29:19.047Z,54.91
2017-07-30T21:29:59.649Z,54.62
2017-07-30T21:30:40.236Z,54.91
2017-07-30T21:31:20.826Z,54.62
2017-07-30T21:32:01.427Z,55.3
2017-07-30T21:32:42.012Z,55.3
2017-07-30T21:33:22.586Z,55.78
2017-07-30T21:34:03.159Z,55.78
2017-07-30T21:34:43.751Z,56.56
2017-07-30T21:35:24.339Z,56.36
2017-07-30T21:36:04.990Z,56.46
2017-07-30T21:36:45.560Z,56.36
2017-07-30T21:37:26.181Z,56.07
2017-07-30T21:38:06.797Z,56.46
2017-07-30T21:38:47.365Z,56.26
2017-07-30T21:39:27.967Z,56.65
2017-07-30T21:40:08.645Z,56.75
2017-07-30T21:40:49.247Z,56.56
2017-07-30T21:41:29.855Z,57.04
2017-07-30T21:42:10.471Z,56.56
2017-07-30T21:42:51.104Z,57.04
2017-07-30T21:43:31.722Z,57.62
2017-07-30T21:44:12.325Z,58.11
2017-07-30T21:44:52.885Z,57.81
2017-07-30T21:45:33.487Z,57.91
2017-07-30T21:46:14.059Z,58.01
2017-07-30T21:46:54.688Z,57.71
2017-07-30T21:47:35.260Z,58.11
2017-07-30T21:48:15.900Z,58.01
2017-07-30T21:48:56.490Z,58.01
2017-07-30T21:49:37.107Z,57.98
2017-07-30T21:50:17.675Z,57.88
2017-07-30T21:50:58.250Z,57.59
2017-07-30T21:51:38.827Z,57.98
2017-07-30T21:52:19.399Z,57.91
2017-07-30T21:52:59.976Z,57.88
2017-07-30T21:53:40.554Z,57.59
2017-07-30T21:54:21.129Z,57.88
2017-07-30T21:55:01.728Z,57.88
2017-07-30T21:55:42.305Z,58.27
2017-07-30T21:56:22.868Z,57.59
2017-07-30T21:57:03.445Z,58.37
2017-07-30T21:57:44.008Z,58.07
2017-07-30T21:58:24.588Z,58.27
2017-07-30T21:59:05.175Z,58.65
2017-07-30T21:59:45.754Z,58.17
2017-07-30T22:00:26.316Z,57.88
2017-07-30T22:01:06.886Z,57.98
2017-07-30T22:01:47.459Z,57.98
2017-07-30T22:02:28.022Z,58.07
2017-07-30T22:03:08.599Z,58.56
2017-07-30T22:03:49.180Z,58.56
2017-07-30T22:04:29.763Z,58.56
2017-07-30T22:05:10.390Z,58.56
2017-07-30T22:05:50.970Z,58.95
2017-07-30T22:06:31.530Z,58.95
2017-07-30T22:07:12.155Z,58.95
2017-07-30T22:07:52.754Z,58.85
2017-07-30T22:08:33.319Z,58.75
2017-07-30T22:09:13.912Z,58.85
2017-07-30T22:09:54.485Z,59.05
2017-07-30T22:10:35.054Z,58.95
2017-07-30T22:11:15.616Z,59.05
2017-07-30T22:11:56.205Z,58.95
2017-07-30T22:12:36.834Z,59.01
2017-07-30T22:13:17.402Z,59.31
2017-07-30T22:13:57.973Z,59.31
2017-07-30T22:14:38.577Z,59.21
2017-07-30T22:15:19.139Z,59.4
2017-07-30T22:15:59.711Z,59.31
2017-07-30T22:16:40.298Z,59.4
2017-07-30T22:17:20.936Z,59.4
2017-07-30T22:18:01.579Z,59.79
2017-07-30T22:18:42.193Z,59.79
2017-07-30T22:19:22.770Z,60.11
2017-07-30T22:20:03.345Z,59.79
2017-07-30T22:20:43.980Z,60.37
2017-07-30T22:21:24.526Z,60.47
2017-07-30T22:22:05.127Z,60.17
2017-07-30T22:22:45.678Z,60.08
2017-07-30T22:23:26.269Z,59.98
2017-07-30T22:24:06.850Z,60.27
2017-07-30T22:24:47.424Z,60.27
2017-07-30T22:25:28.051Z,60.27
2017-07-30T22:26:08.661Z,60.08
2017-07-30T22:26:49.232Z,61.05
2017-07-30T22:27:29.835Z,60.17
2017-07-30T22:28:10.448Z,60.27
2017-07-30T22:28:51.030Z,60.47
2017-07-30T22:29:31.614Z,60.85
2017-07-30T22:30:12.272Z,61.05
2017-07-30T22:30:52.854Z,60.95
2017-07-30T22:31:33.435Z,60.85
2017-07-30T22:32:14.015Z,61.43
2017-07-30T22:32:54.592Z,61.15
2017-07-30T22:33:35.186Z,61.72
2017-07-30T22:34:15.753Z,61.82
2017-07-30T22:34:56.325Z,61.53
2017-07-30T22:35:36.905Z,61.53
2017-07-30T22:36:17.474Z,60.75
2017-07-30T22:36:58.052Z,61.33
2017-07-30T22:37:38.628Z,61.33
2017-07-30T22:38:19.220Z,61.05
2017-07-30T22:38:59.809Z,61.72
2017-07-30T22:39:40.389Z,61.33
2017-07-30T22:40:20.978Z,61.33
2017-07-30T22:41:01.578Z,61.43
2017-07-30T22:41:42.146Z,61.24
2017-07-30T22:42:22.726Z,61.63
2017-07-30T22:43:03.320Z,61.72
2017-07-30T22:43:43.890Z,61.82
2017-07-30T22:44:24.478Z,61.92
2017-07-30T22:45:05.042Z,62.5
2017-07-30T22:45:45.600Z,62.69
2017-07-30T22:46:26.209Z,62.5
2017-07-30T22:47:06.767Z,62.66
2017-07-30T22:47:47.344Z,62.69
2017-07-30T22:48:27.914Z,62.69
2017-07-30T22:49:08.733Z,62.69
2017-07-30T22:49:49.082Z,62.18
2017-07-30T22:50:29.644Z,62.59
2017-07-30T22:51:10.228Z,62.59
2017-07-30T22:51:50.809Z,62.47
2017-07-30T22:52:31.388Z,62.37
2017-07-30T22:53:11.990Z,62.27
2017-07-30T22:53:52.567Z,62.27
2017-07-30T22:54:33.133Z,62.59
2017-07-30T22:55:13.703Z,62.37
2017-07-30T22:55:54.286Z,62.5
2017-07-30T22:56:34.872Z,62.56
2017-07-30T22:57:15.459Z,62.18
2017-07-30T22:57:56.024Z,62.56
2017-07-30T22:58:36.624Z,62.56
2017-07-30T22:59:17.241Z,61.98
2017-07-30T22:59:57.818Z,62.37
2017-07-30T23:00:38.375Z,62.18
2017-07-30T23:01:18.969Z,62.56
2017-07-30T23:01:59.544Z,62.47
2017-07-30T23:02:40.114Z,62.56
2017-07-30T23:03:20.718Z,63.05
2017-07-30T23:04:01.300Z,62.85
2017-07-30T23:04:41.875Z,62.66
2017-07-30T23:05:22.442Z,62.56
2017-07-30T23:06:03.014Z,62.95
2017-07-30T23:06:43.603Z,63.43
2017-07-30T23:07:24.169Z,63.05
2017-07-30T23:08:04.771Z,63.34
2017-07-30T23:08:45.349Z,63.34
2017-07-30T23:09:25.945Z,63.24
2017-07-30T23:10:06.520Z,63.05
2017-07-30T23:10:47.140Z,63.24
2017-07-30T23:11:27.716Z,63.63
2017-07-30T23:12:08.289Z,62.95
2017-07-30T23:12:48.875Z,63.63
2017-07-30T23:13:29.471Z,64.01
2017-07-30T23:14:10.044Z,63.82
2017-07-30T23:14:50.626Z,63.82
2017-07-30T23:15:31.207Z,63.63
2017-07-30T23:16:11.805Z,63.73
2017-07-30T23:16:52.415Z,64.11
2017-07-30T23:17:32.995Z,63.82
2017-07-30T23:18:13.576Z,63.24
2017-07-30T23:18:54.132Z,63.73
2017-07-30T23:19:34.703Z,64.11
2017-07-30T23:20:15.292Z,64.01
2017-07-30T23:20:55.896Z,64.01
2017-07-30T23:21:36.494Z,64.01
2017-07-30T23:22:17.032Z,63.82
2017-07-30T23:22:57.596Z,63.43
2017-07-30T23:23:38.172Z,64.01
2017-07-30T23:24:18.737Z,63.63
2017-07-30T23:24:59.301Z,63.69
2017-07-30T23:25:39.900Z,63.73
2017-07-30T23:26:20.530Z,63.31
2017-07-30T23:27:01.105Z,63.53
2017-07-30T23:27:41.730Z,63.73
2017-07-30T23:28:22.316Z,64.01
2017-07-30T23:29:02.890Z,63.89
2017-07-30T23:29:43.491Z,63.82
2017-07-30T23:30:24.070Z,63.82
2017-07-30T23:31:04.680Z,63.98
2017-07-30T23:31:45.278Z,63.98
2017-07-30T23:32:25.883Z,63.82
2017-07-30T23:33:06.458Z,63.98
2017-07-30T23:33:47.076Z,63.79
2017-07-30T23:34:27.683Z,63.98
2017-07-30T23:35:08.253Z,64.01
2017-07-30T23:35:48.825Z,63.92
2017-07-30T23:36:29.406Z,64.21
2017-07-30T23:37:09.995Z,64.5
2017-07-30T23:37:50.576Z,64.37
2017-07-30T23:38:31.155Z,64.18
2017-07-30T23:39:11.808Z,64.66
2017-07-30T23:39:52.401Z,64.95
2017-07-30T23:40:33.026Z,65.43
2017-07-30T23:41:13.599Z,64.76
2017-07-30T23:41:54.182Z,64.76
2017-07-30T23:42:34.740Z,64.76
2017-07-30T23:43:15.332Z,65.05
2017-07-30T23:43:55.903Z,64.95
2017-07-30T23:44:36.495Z,65.24
2017-07-30T23:45:17.109Z,65.34
2017-07-30T23:45:57.696Z,65.43
2017-07-30T23:46:38.288Z,65.34
2017-07-30T23:47:18.927Z,65.34
2017-07-30T23:47:59.518Z,65.34
2017-07-30T23:48:40.127Z,65.63
2017-07-30T23:49:20.707Z,65.05
2017-07-30T23:50:01.294Z,65.43
2017-07-30T23:50:41.879Z,65.34
2017-07-30T23:51:22.487Z,65.53
2017-07-30T23:52:03.094Z,64.85
2017-07-30T23:52:43.688Z,65.24
2017-07-30T23:53:24.286Z,65.53
2017-07-30T23:54:04.884Z,65.34
2017-07-30T23:54:45.475Z,65.63
2017-07-30T23:55:26.050Z,65.63
2017-07-30T23:56:06.630Z,65.82
2017-07-30T23:56:47.208Z,65.82
2017-07-30T23:57:27.804Z,66.2
2017-07-30T23:58:08.361Z,65.92
2017-07-30T23:58:48.940Z,65.34
2017-07-30T23:59:29.544Z,65.43
